sensor_id;sensor_type;location;lat;lon;timestamp;P1;durP1;ratioP1;P2;durP2;ratioP2
71464;SDS011;59274;49.874;9.154;2023-06-22T00:01:54;8.60;;;4.10;;
71464;SDS011;59274;49.874;9.154;2023-06-22T00:04:19;8.00;;;3.83;;
71464;SDS011;59274;49.874;9.154;2023-06-22T00:06:45;9.00;;;4.50;;
71464;SDS011;59274;49.874;9.154;2023-06-22T00:09:10;9.57;;;4.40;;
71464;SDS011;59274;49.874;9.154;2023-06-22T00:11:36;7.77;;;3.73;;
71464;SDS011;59274;49.874;9.154;2023-06-22T00:14:03;7.82;;;4.15;;
71464;SDS011;59274;49.874;9.154;2023-06-22T00:16:29;9.18;;;4.57;;
71464;SDS011;59274;49.874;9.154;2023-06-22T00:18:54;8.50;;;3.73;;
71464;SDS011;59274;49.874;9.154;2023-06-22T00:21:20;10.33;;;5.03;;
71464;SDS011;59274;49.874;9.154;2023-06-22T00:23:45;8.80;;;4.95;;
71464;SDS011;59274;49.874;9.154;2023-06-22T00:26:12;9.23;;;5.03;;
71464;SDS011;59274;49.874;9.154;2023-06-22T00:28:38;10.05;;;5.03;;
71464;SDS011;59274;49.874;9.154;2023-06-22T00:31:04;9.40;;;5.10;;
71464;SDS011;59274;49.874;9.154;2023-06-22T00:33:29;9.30;;;4.13;;
71464;SDS011;59274;49.874;9.154;2023-06-22T00:35:55;8.10;;;4.27;;
71464;SDS011;59274;49.874;9.154;2023-06-22T00:38:20;8.60;;;4.03;;
71464;SDS011;59274;49.874;9.154;2023-06-22T00:40:46;7.22;;;3.70;;
71464;SDS011;59274;49.874;9.154;2023-06-22T00:43:11;7.20;;;3.33;;
71464;SDS011;59274;49.874;9.154;2023-06-22T00:45:37;8.50;;;4.30;;
71464;SDS011;59274;49.874;9.154;2023-06-22T00:48:06;8.13;;;4.25;;
71464;SDS011;59274;49.874;9.154;2023-06-22T00:50:33;8.43;;;3.92;;
71464;SDS011;59274;49.874;9.154;2023-06-22T00:53:03;9.35;;;4.32;;
71464;SDS011;59274;49.874;9.154;2023-06-22T00:55:36;9.40;;;4.68;;
71464;SDS011;59274;49.874;9.154;2023-06-22T00:58:12;8.52;;;4.20;;
71464;SDS011;59274;49.874;9.154;2023-06-22T01:00:41;10.65;;;3.95;;
71464;SDS011;59274;49.874;9.154;2023-06-22T01:03:07;7.60;;;3.72;;
71464;SDS011;59274;49.874;9.154;2023-06-22T01:05:36;7.70;;;3.75;;
71464;SDS011;59274;49.874;9.154;2023-06-22T01:13:11;8.30;;;3.60;;
71464;SDS011;59274;49.874;9.154;2023-06-22T01:15:43;7.07;;;3.78;;
71464;SDS011;59274;49.874;9.154;2023-06-22T01:18:14;8.32;;;3.88;;
71464;SDS011;59274;49.874;9.154;2023-06-22T01:20:42;6.88;;;3.95;;
71464;SDS011;59274;49.874;9.154;2023-06-22T01:25:46;9.07;;;4.17;;
71464;SDS011;59274;49.874;9.154;2023-06-22T01:31:02;9.20;;;3.75;;
71464;SDS011;59274;49.874;9.154;2023-06-22T01:33:33;8.07;;;3.17;;
71464;SDS011;59274;49.874;9.154;2023-06-22T01:36:02;7.70;;;3.47;;
71464;SDS011;59274;49.874;9.154;2023-06-22T01:38:29;7.27;;;3.83;;
71464;SDS011;59274;49.874;9.154;2023-06-22T01:40:57;7.18;;;3.53;;
71464;SDS011;59274;49.874;9.154;2023-06-22T01:43:24;5.55;;;3.03;;
71464;SDS011;59274;49.874;9.154;2023-06-22T01:45:51;9.40;;;3.90;;
71464;SDS011;59274;49.874;9.154;2023-06-22T01:48:17;8.02;;;4.15;;
71464;SDS011;59274;49.874;9.154;2023-06-22T01:50:44;7.83;;;3.70;;
71464;SDS011;59274;49.874;9.154;2023-06-22T01:53:10;8.13;;;3.90;;
71464;SDS011;59274;49.874;9.154;2023-06-22T01:55:36;10.25;;;3.53;;
71464;SDS011;59274;49.874;9.154;2023-06-22T01:58:01;7.97;;;3.67;;
71464;SDS011;59274;49.874;9.154;2023-06-22T02:00:27;7.40;;;3.90;;
71464;SDS011;59274;49.874;9.154;2023-06-22T02:02:58;10.43;;;3.65;;
71464;SDS011;59274;49.874;9.154;2023-06-22T02:05:28;11.05;;;4.00;;
71464;SDS011;59274;49.874;9.154;2023-06-22T02:08:05;7.80;;;3.97;;
71464;SDS011;59274;49.874;9.154;2023-06-22T02:10:37;8.65;;;4.20;;
71464;SDS011;59274;49.874;9.154;2023-06-22T02:13:06;6.25;;;3.50;;
71464;SDS011;59274;49.874;9.154;2023-06-22T02:15:33;6.10;;;3.05;;
71464;SDS011;59274;49.874;9.154;2023-06-22T02:17:59;7.68;;;3.28;;
71464;SDS011;59274;49.874;9.154;2023-06-22T02:20:25;7.20;;;3.87;;
71464;SDS011;59274;49.874;9.154;2023-06-22T02:22:50;8.35;;;3.70;;
71464;SDS011;59274;49.874;9.154;2023-06-22T02:25:16;8.53;;;4.23;;
71464;SDS011;59274;49.874;9.154;2023-06-22T02:27:41;8.40;;;3.80;;
71464;SDS011;59274;49.874;9.154;2023-06-22T02:30:10;7.63;;;3.70;;
71464;SDS011;59274;49.874;9.154;2023-06-22T02:32:36;7.70;;;3.92;;
71464;SDS011;59274;49.874;9.154;2023-06-22T02:35:01;9.30;;;4.18;;
71464;SDS011;59274;49.874;9.154;2023-06-22T02:37:31;9.13;;;4.00;;
71464;SDS011;59274;49.874;9.154;2023-06-22T02:39:57;9.65;;;4.20;;
71464;SDS011;59274;49.874;9.154;2023-06-22T02:42:22;9.53;;;3.80;;
71464;SDS011;59274;49.874;9.154;2023-06-22T02:44:48;8.85;;;3.88;;
71464;SDS011;59274;49.874;9.154;2023-06-22T02:47:13;10.00;;;4.40;;
71464;SDS011;59274;49.874;9.154;2023-06-22T02:49:39;10.73;;;4.63;;
71464;SDS011;59274;49.874;9.154;2023-06-22T02:52:04;10.23;;;4.33;;
71464;SDS011;59274;49.874;9.154;2023-06-22T02:54:30;7.70;;;3.92;;
71464;SDS011;59274;49.874;9.154;2023-06-22T02:56:55;7.77;;;4.07;;
71464;SDS011;59274;49.874;9.154;2023-06-22T02:59:21;8.17;;;4.17;;
71464;SDS011;59274;49.874;9.154;2023-06-22T03:01:49;11.02;;;4.20;;
71464;SDS011;59274;49.874;9.154;2023-06-22T03:04:17;8.95;;;4.18;;
71464;SDS011;59274;49.874;9.154;2023-06-22T03:06:43;9.83;;;4.40;;
71464;SDS011;59274;49.874;9.154;2023-06-22T03:09:08;8.07;;;3.90;;
71464;SDS011;59274;49.874;9.154;2023-06-22T03:11:34;8.00;;;4.00;;
71464;SDS011;59274;49.874;9.154;2023-06-22T03:13:59;11.93;;;4.10;;
71464;SDS011;59274;49.874;9.154;2023-06-22T03:16:26;8.30;;;3.97;;
71464;SDS011;59274;49.874;9.154;2023-06-22T03:18:51;6.83;;;3.57;;
71464;SDS011;59274;49.874;9.154;2023-06-22T03:21:18;7.47;;;3.75;;
71464;SDS011;59274;49.874;9.154;2023-06-22T03:23:44;8.73;;;4.03;;
71464;SDS011;59274;49.874;9.154;2023-06-22T03:26:10;8.23;;;3.67;;
71464;SDS011;59274;49.874;9.154;2023-06-22T03:28:36;8.32;;;4.10;;
71464;SDS011;59274;49.874;9.154;2023-06-22T03:31:02;9.73;;;4.30;;
71464;SDS011;59274;49.874;9.154;2023-06-22T03:33:29;8.57;;;4.37;;
71464;SDS011;59274;49.874;9.154;2023-06-22T03:35:54;7.70;;;3.78;;
71464;SDS011;59274;49.874;9.154;2023-06-22T03:38:20;8.57;;;3.73;;
71464;SDS011;59274;49.874;9.154;2023-06-22T03:40:46;10.40;;;4.35;;
71464;SDS011;59274;49.874;9.154;2023-06-22T03:43:11;8.00;;;4.23;;
71464;SDS011;59274;49.874;9.154;2023-06-22T03:45:37;8.73;;;4.03;;
71464;SDS011;59274;49.874;9.154;2023-06-22T03:48:02;7.72;;;3.88;;
71464;SDS011;59274;49.874;9.154;2023-06-22T03:50:28;7.53;;;4.23;;
71464;SDS011;59274;49.874;9.154;2023-06-22T03:52:55;8.63;;;4.55;;
71464;SDS011;59274;49.874;9.154;2023-06-22T03:55:20;6.93;;;3.87;;
71464;SDS011;59274;49.874;9.154;2023-06-22T03:57:46;8.70;;;4.10;;
71464;SDS011;59274;49.874;9.154;2023-06-22T04:00:11;7.70;;;4.13;;
71464;SDS011;59274;49.874;9.154;2023-06-22T04:02:37;8.55;;;4.50;;
71464;SDS011;59274;49.874;9.154;2023-06-22T04:05:03;8.33;;;4.17;;
71464;SDS011;59274;49.874;9.154;2023-06-22T04:07:28;8.73;;;3.70;;
71464;SDS011;59274;49.874;9.154;2023-06-22T04:09:54;10.55;;;4.68;;
71464;SDS011;59274;49.874;9.154;2023-06-22T04:12:19;9.13;;;4.17;;
71464;SDS011;59274;49.874;9.154;2023-06-22T04:14:45;8.87;;;4.43;;
71464;SDS011;59274;49.874;9.154;2023-06-22T04:17:10;9.13;;;4.70;;
71464;SDS011;59274;49.874;9.154;2023-06-22T04:19:40;8.48;;;4.10;;
71464;SDS011;59274;49.874;9.154;2023-06-22T04:22:06;9.18;;;5.10;;
71464;SDS011;59274;49.874;9.154;2023-06-22T04:24:35;9.43;;;4.15;;
71464;SDS011;59274;49.874;9.154;2023-06-22T04:27:00;9.13;;;4.30;;
71464;SDS011;59274;49.874;9.154;2023-06-22T04:29:27;9.13;;;4.57;;
71464;SDS011;59274;49.874;9.154;2023-06-22T04:31:55;8.65;;;4.70;;
71464;SDS011;59274;49.874;9.154;2023-06-22T04:34:23;9.13;;;4.60;;
71464;SDS011;59274;49.874;9.154;2023-06-22T04:36:51;7.97;;;3.95;;
71464;SDS011;59274;49.874;9.154;2023-06-22T04:39:16;7.05;;;4.07;;
71464;SDS011;59274;49.874;9.154;2023-06-22T04:41:44;8.02;;;3.97;;
71464;SDS011;59274;49.874;9.154;2023-06-22T04:44:14;8.45;;;4.40;;
71464;SDS011;59274;49.874;9.154;2023-06-22T04:46:50;8.40;;;4.47;;
71464;SDS011;59274;49.874;9.154;2023-06-22T04:49:19;8.38;;;4.22;;
71464;SDS011;59274;49.874;9.154;2023-06-22T04:51:45;9.43;;;4.32;;
71464;SDS011;59274;49.874;9.154;2023-06-22T04:54:11;8.73;;;4.20;;
71464;SDS011;59274;49.874;9.154;2023-06-22T04:56:36;7.83;;;4.23;;
71464;SDS011;59274;49.874;9.154;2023-06-22T04:59:02;8.02;;;4.35;;
71464;SDS011;59274;49.874;9.154;2023-06-22T05:01:30;12.73;;;5.05;;
71464;SDS011;59274;49.874;9.154;2023-06-22T05:03:56;8.05;;;4.30;;
71464;SDS011;59274;49.874;9.154;2023-06-22T05:06:25;9.27;;;4.72;;
71464;SDS011;59274;49.874;9.154;2023-06-22T05:08:52;9.37;;;4.90;;
71464;SDS011;59274;49.874;9.154;2023-06-22T05:11:22;10.05;;;5.22;;
71464;SDS011;59274;49.874;9.154;2023-06-22T05:13:49;9.25;;;5.30;;
71464;SDS011;59274;49.874;9.154;2023-06-22T05:16:14;9.73;;;4.73;;
71464;SDS011;59274;49.874;9.154;2023-06-22T05:18:39;9.32;;;4.40;;
71464;SDS011;59274;49.874;9.154;2023-06-22T05:21:07;8.57;;;4.40;;
71464;SDS011;59274;49.874;9.154;2023-06-22T05:23:32;8.63;;;4.50;;
71464;SDS011;59274;49.874;9.154;2023-06-22T05:26:00;9.93;;;4.47;;
71464;SDS011;59274;49.874;9.154;2023-06-22T05:28:27;10.85;;;4.60;;
71464;SDS011;59274;49.874;9.154;2023-06-22T05:30:52;9.95;;;4.30;;
71464;SDS011;59274;49.874;9.154;2023-06-22T05:33:18;8.83;;;4.53;;
71464;SDS011;59274;49.874;9.154;2023-06-22T05:35:43;9.90;;;4.83;;
71464;SDS011;59274;49.874;9.154;2023-06-22T05:38:09;9.00;;;4.50;;
71464;SDS011;59274;49.874;9.154;2023-06-22T05:40:37;11.43;;;5.35;;
71464;SDS011;59274;49.874;9.154;2023-06-22T05:43:02;9.97;;;4.30;;
71464;SDS011;59274;49.874;9.154;2023-06-22T05:45:28;9.40;;;4.78;;
71464;SDS011;59274;49.874;9.154;2023-06-22T05:47:53;10.63;;;5.00;;
71464;SDS011;59274;49.874;9.154;2023-06-22T05:50:18;11.17;;;4.87;;
71464;SDS011;59274;49.874;9.154;2023-06-22T05:52:44;9.53;;;5.00;;
71464;SDS011;59274;49.874;9.154;2023-06-22T05:55:09;7.93;;;4.10;;
71464;SDS011;59274;49.874;9.154;2023-06-22T05:57:35;9.85;;;4.50;;
71464;SDS011;59274;49.874;9.154;2023-06-22T06:00:00;10.93;;;4.70;;
71464;SDS011;59274;49.874;9.154;2023-06-22T06:02:26;9.20;;;4.70;;
71464;SDS011;59274;49.874;9.154;2023-06-22T06:04:51;8.30;;;4.03;;
71464;SDS011;59274;49.874;9.154;2023-06-22T06:07:17;8.60;;;4.57;;
71464;SDS011;59274;49.874;9.154;2023-06-22T06:09:43;9.90;;;5.25;;
71464;SDS011;59274;49.874;9.154;2023-06-22T06:12:09;9.57;;;4.83;;
71464;SDS011;59274;49.874;9.154;2023-06-22T06:14:34;9.38;;;4.30;;
71464;SDS011;59274;49.874;9.154;2023-06-22T06:16:59;8.35;;;4.70;;
71464;SDS011;59274;49.874;9.154;2023-06-22T06:19:25;8.03;;;4.27;;
71464;SDS011;59274;49.874;9.154;2023-06-22T06:21:50;9.43;;;5.10;;
71464;SDS011;59274;49.874;9.154;2023-06-22T06:24:16;9.97;;;4.63;;
71464;SDS011;59274;49.874;9.154;2023-06-22T06:26:41;11.15;;;4.85;;
71464;SDS011;59274;49.874;9.154;2023-06-22T06:29:06;8.50;;;4.53;;
71464;SDS011;59274;49.874;9.154;2023-06-22T06:31:32;9.20;;;4.70;;
71464;SDS011;59274;49.874;9.154;2023-06-22T06:33:58;8.80;;;4.10;;
71464;SDS011;59274;49.874;9.154;2023-06-22T06:36:23;8.83;;;4.50;;
71464;SDS011;59274;49.874;9.154;2023-06-22T06:38:49;8.60;;;5.00;;
71464;SDS011;59274;49.874;9.154;2023-06-22T06:41:15;9.73;;;4.60;;
71464;SDS011;59274;49.874;9.154;2023-06-22T06:43:41;10.88;;;5.53;;
71464;SDS011;59274;49.874;9.154;2023-06-22T06:46:09;9.65;;;5.13;;
71464;SDS011;59274;49.874;9.154;2023-06-22T06:48:35;10.13;;;5.50;;
71464;SDS011;59274;49.874;9.154;2023-06-22T06:51:01;10.18;;;5.38;;
71464;SDS011;59274;49.874;9.154;2023-06-22T06:53:26;9.13;;;4.60;;
71464;SDS011;59274;49.874;9.154;2023-06-22T06:55:52;8.40;;;4.87;;
71464;SDS011;59274;49.874;9.154;2023-06-22T06:58:17;10.68;;;5.18;;
71464;SDS011;59274;49.874;9.154;2023-06-22T07:00:43;10.77;;;5.40;;
71464;SDS011;59274;49.874;9.154;2023-06-22T07:03:08;9.02;;;5.00;;
71464;SDS011;59274;49.874;9.154;2023-06-22T07:05:34;10.07;;;5.57;;
71464;SDS011;59274;49.874;9.154;2023-06-22T07:08:00;10.60;;;5.57;;
71464;SDS011;59274;49.874;9.154;2023-06-22T07:10:26;9.43;;;5.20;;
71464;SDS011;59274;49.874;9.154;2023-06-22T07:12:52;9.83;;;5.27;;
71464;SDS011;59274;49.874;9.154;2023-06-22T07:15:17;9.37;;;4.80;;
71464;SDS011;59274;49.874;9.154;2023-06-22T07:17:43;9.37;;;4.97;;
71464;SDS011;59274;49.874;9.154;2023-06-22T07:20:08;10.60;;;5.40;;
71464;SDS011;59274;49.874;9.154;2023-06-22T07:22:38;10.30;;;5.30;;
71464;SDS011;59274;49.874;9.154;2023-06-22T07:25:04;10.07;;;4.80;;
71464;SDS011;59274;49.874;9.154;2023-06-22T07:27:35;8.60;;;5.13;;
71464;SDS011;59274;49.874;9.154;2023-06-22T07:30:05;9.65;;;5.60;;
71464;SDS011;59274;49.874;9.154;2023-06-22T07:32:31;8.35;;;4.60;;
71464;SDS011;59274;49.874;9.154;2023-06-22T07:34:56;9.00;;;5.07;;
71464;SDS011;59274;49.874;9.154;2023-06-22T07:37:22;9.40;;;5.83;;
71464;SDS011;59274;49.874;9.154;2023-06-22T07:39:47;9.00;;;5.18;;
71464;SDS011;59274;49.874;9.154;2023-06-22T07:42:15;9.37;;;5.07;;
71464;SDS011;59274;49.874;9.154;2023-06-22T07:44:43;8.52;;;4.90;;
71464;SDS011;59274;49.874;9.154;2023-06-22T07:47:09;9.70;;;5.10;;
71464;SDS011;59274;49.874;9.154;2023-06-22T07:49:34;8.77;;;4.82;;
71464;SDS011;59274;49.874;9.154;2023-06-22T07:51:59;8.53;;;4.63;;
71464;SDS011;59274;49.874;9.154;2023-06-22T07:54:26;9.35;;;5.00;;
71464;SDS011;59274;49.874;9.154;2023-06-22T07:56:51;8.10;;;4.30;;
71464;SDS011;59274;49.874;9.154;2023-06-22T07:59:18;8.98;;;4.63;;
71464;SDS011;59274;49.874;9.154;2023-06-22T08:01:43;7.47;;;4.00;;
71464;SDS011;59274;49.874;9.154;2023-06-22T08:04:09;7.17;;;3.87;;
71464;SDS011;59274;49.874;9.154;2023-06-22T08:06:34;9.80;;;4.33;;
71464;SDS011;59274;49.874;9.154;2023-06-22T08:09:00;7.60;;;4.57;;
71464;SDS011;59274;49.874;9.154;2023-06-22T08:11:25;8.38;;;4.30;;
71464;SDS011;59274;49.874;9.154;2023-06-22T08:13:51;8.17;;;4.43;;
71464;SDS011;59274;49.874;9.154;2023-06-22T08:16:17;8.13;;;4.60;;
71464;SDS011;59274;49.874;9.154;2023-06-22T08:18:43;8.60;;;4.57;;
71464;SDS011;59274;49.874;9.154;2023-06-22T08:21:08;8.65;;;4.60;;
71464;SDS011;59274;49.874;9.154;2023-06-22T08:23:34;8.20;;;4.30;;
71464;SDS011;59274;49.874;9.154;2023-06-22T08:25:59;7.25;;;3.90;;
71464;SDS011;59274;49.874;9.154;2023-06-22T08:28:25;9.57;;;4.33;;
71464;SDS011;59274;49.874;9.154;2023-06-22T08:30:50;8.60;;;4.37;;
71464;SDS011;59274;49.874;9.154;2023-06-22T08:33:16;7.63;;;4.03;;
71464;SDS011;59274;49.874;9.154;2023-06-22T08:35:41;7.65;;;3.88;;
71464;SDS011;59274;49.874;9.154;2023-06-22T08:38:07;9.97;;;4.43;;
71464;SDS011;59274;49.874;9.154;2023-06-22T08:40:33;8.23;;;4.10;;
71464;SDS011;59274;49.874;9.154;2023-06-22T08:42:59;8.03;;;4.53;;
71464;SDS011;59274;49.874;9.154;2023-06-22T08:45:24;7.07;;;4.13;;
71464;SDS011;59274;49.874;9.154;2023-06-22T08:47:50;7.60;;;4.10;;
71464;SDS011;59274;49.874;9.154;2023-06-22T08:50:15;8.45;;;4.30;;
71464;SDS011;59274;49.874;9.154;2023-06-22T08:52:41;8.83;;;4.47;;
71464;SDS011;59274;49.874;9.154;2023-06-22T08:55:06;7.93;;;4.43;;
71464;SDS011;59274;49.874;9.154;2023-06-22T08:57:33;9.27;;;4.20;;
71464;SDS011;59274;49.874;9.154;2023-06-22T08:59:59;7.73;;;4.27;;
71464;SDS011;59274;49.874;9.154;2023-06-22T09:02:25;9.25;;;4.10;;
71464;SDS011;59274;49.874;9.154;2023-06-22T09:04:51;8.27;;;4.57;;
71464;SDS011;59274;49.874;9.154;2023-06-22T09:07:21;7.90;;;4.00;;
71464;SDS011;59274;49.874;9.154;2023-06-22T09:09:48;7.47;;;4.10;;
71464;SDS011;59274;49.874;9.154;2023-06-22T09:12:14;8.20;;;4.30;;
71464;SDS011;59274;49.874;9.154;2023-06-22T09:14:39;7.23;;;3.80;;
71464;SDS011;59274;49.874;9.154;2023-06-22T09:17:05;8.23;;;4.60;;
71464;SDS011;59274;49.874;9.154;2023-06-22T09:19:30;7.72;;;4.30;;
71464;SDS011;59274;49.874;9.154;2023-06-22T09:21:56;10.23;;;4.70;;
71464;SDS011;59274;49.874;9.154;2023-06-22T09:24:21;8.67;;;4.43;;
71464;SDS011;59274;49.874;9.154;2023-06-22T09:26:47;8.25;;;4.90;;
71464;SDS011;59274;49.874;9.154;2023-06-22T09:29:12;8.43;;;4.10;;
71464;SDS011;59274;49.874;9.154;2023-06-22T09:31:37;8.53;;;4.70;;
71464;SDS011;59274;49.874;9.154;2023-06-22T09:34:03;8.30;;;4.50;;
71464;SDS011;59274;49.874;9.154;2023-06-22T09:36:28;9.07;;;4.00;;
71464;SDS011;59274;49.874;9.154;2023-06-22T09:38:54;9.43;;;3.95;;
71464;SDS011;59274;49.874;9.154;2023-06-22T09:41:23;10.27;;;4.20;;
71464;SDS011;59274;49.874;9.154;2023-06-22T09:43:49;7.40;;;3.97;;
71464;SDS011;59274;49.874;9.154;2023-06-22T09:46:15;8.13;;;4.50;;
71464;SDS011;59274;49.874;9.154;2023-06-22T09:48:41;7.43;;;4.03;;
71464;SDS011;59274;49.874;9.154;2023-06-22T09:51:07;7.93;;;4.37;;
71464;SDS011;59274;49.874;9.154;2023-06-22T09:53:32;8.57;;;4.57;;
71464;SDS011;59274;49.874;9.154;2023-06-22T09:55:59;8.13;;;3.95;;
71464;SDS011;59274;49.874;9.154;2023-06-22T09:58:25;7.45;;;4.07;;
71464;SDS011;59274;49.874;9.154;2023-06-22T10:00:50;8.10;;;4.43;;
71464;SDS011;59274;49.874;9.154;2023-06-22T10:03:16;7.97;;;4.03;;
71464;SDS011;59274;49.874;9.154;2023-06-22T10:05:41;8.53;;;4.67;;
71464;SDS011;59274;49.874;9.154;2023-06-22T10:08:07;8.65;;;4.68;;
71464;SDS011;59274;49.874;9.154;2023-06-22T10:10:35;8.80;;;4.33;;
71464;SDS011;59274;49.874;9.154;2023-06-22T10:13:02;6.78;;;4.03;;
71464;SDS011;59274;49.874;9.154;2023-06-22T10:15:36;8.53;;;4.40;;
71464;SDS011;59274;49.874;9.154;2023-06-22T10:18:02;7.13;;;3.88;;
71464;SDS011;59274;49.874;9.154;2023-06-22T10:20:28;8.07;;;4.43;;
71464;SDS011;59274;49.874;9.154;2023-06-22T10:22:54;8.23;;;4.40;;
71464;SDS011;59274;49.874;9.154;2023-06-22T10:25:19;9.73;;;4.13;;
71464;SDS011;59274;49.874;9.154;2023-06-22T10:27:45;6.85;;;3.90;;
71464;SDS011;59274;49.874;9.154;2023-06-22T10:30:11;7.00;;;3.73;;
71464;SDS011;59274;49.874;9.154;2023-06-22T10:32:41;6.97;;;3.90;;
71464;SDS011;59274;49.874;9.154;2023-06-22T10:35:10;8.90;;;4.25;;
71464;SDS011;59274;49.874;9.154;2023-06-22T10:37:42;7.78;;;4.18;;
71464;SDS011;59274;49.874;9.154;2023-06-22T10:40:08;9.23;;;4.17;;
71464;SDS011;59274;49.874;9.154;2023-06-22T10:42:34;8.13;;;4.55;;
71464;SDS011;59274;49.874;9.154;2023-06-22T10:45:00;6.72;;;3.78;;
71464;SDS011;59274;49.874;9.154;2023-06-22T10:47:25;8.30;;;4.10;;
71464;SDS011;59274;49.874;9.154;2023-06-22T10:49:50;8.03;;;4.23;;
71464;SDS011;59274;49.874;9.154;2023-06-22T10:52:16;9.63;;;4.03;;
71464;SDS011;59274;49.874;9.154;2023-06-22T10:54:41;6.87;;;3.87;;
71464;SDS011;59274;49.874;9.154;2023-06-22T10:57:06;8.82;;;4.55;;
71464;SDS011;59274;49.874;9.154;2023-06-22T10:59:32;9.63;;;4.63;;
71464;SDS011;59274;49.874;9.154;2023-06-22T11:01:58;7.87;;;4.13;;
71464;SDS011;59274;49.874;9.154;2023-06-22T11:04:23;6.78;;;3.78;;
71464;SDS011;59274;49.874;9.154;2023-06-22T11:06:49;6.80;;;4.10;;
71464;SDS011;59274;49.874;9.154;2023-06-22T11:09:15;9.33;;;4.40;;
71464;SDS011;59274;49.874;9.154;2023-06-22T11:11:50;8.18;;;4.35;;
71464;SDS011;59274;49.874;9.154;2023-06-22T11:14:18;8.13;;;4.25;;
71464;SDS011;59274;49.874;9.154;2023-06-22T11:16:44;7.93;;;4.22;;
71464;SDS011;59274;49.874;9.154;2023-06-22T11:19:14;7.10;;;4.10;;
71464;SDS011;59274;49.874;9.154;2023-06-22T11:21:40;7.37;;;3.83;;
71464;SDS011;59274;49.874;9.154;2023-06-22T11:24:05;8.07;;;4.28;;
71464;SDS011;59274;49.874;9.154;2023-06-22T11:26:31;7.97;;;4.10;;
71464;SDS011;59274;49.874;9.154;2023-06-22T11:28:57;9.23;;;4.50;;
71464;SDS011;59274;49.874;9.154;2023-06-22T11:31:23;8.18;;;4.35;;
71464;SDS011;59274;49.874;9.154;2023-06-22T11:33:48;8.30;;;4.23;;
71464;SDS011;59274;49.874;9.154;2023-06-22T11:36:14;8.20;;;4.27;;
71464;SDS011;59274;49.874;9.154;2023-06-22T11:38:40;7.55;;;3.97;;
71464;SDS011;59274;49.874;9.154;2023-06-22T11:41:06;7.28;;;3.70;;
71464;SDS011;59274;49.874;9.154;2023-06-22T11:43:32;7.13;;;4.10;;
71464;SDS011;59274;49.874;9.154;2023-06-22T11:45:58;8.43;;;4.53;;
71464;SDS011;59274;49.874;9.154;2023-06-22T11:48:24;7.15;;;4.03;;
71464;SDS011;59274;49.874;9.154;2023-06-22T11:50:50;8.00;;;4.40;;
71464;SDS011;59274;49.874;9.154;2023-06-22T11:53:15;10.65;;;4.68;;
71464;SDS011;59274;49.874;9.154;2023-06-22T11:55:42;7.57;;;4.43;;
71464;SDS011;59274;49.874;9.154;2023-06-22T11:58:08;7.57;;;4.22;;
71464;SDS011;59274;49.874;9.154;2023-06-22T12:00:34;8.67;;;4.30;;
71464;SDS011;59274;49.874;9.154;2023-06-22T12:03:00;8.93;;;4.13;;
71464;SDS011;59274;49.874;9.154;2023-06-22T12:05:25;7.23;;;4.13;;
71464;SDS011;59274;49.874;9.154;2023-06-22T12:07:52;8.30;;;4.20;;
71464;SDS011;59274;49.874;9.154;2023-06-22T12:10:19;7.40;;;4.28;;
71464;SDS011;59274;49.874;9.154;2023-06-22T12:12:44;7.90;;;4.37;;
71464;SDS011;59274;49.874;9.154;2023-06-22T12:15:09;8.40;;;4.53;;
71464;SDS011;59274;49.874;9.154;2023-06-22T12:17:35;10.43;;;4.18;;
71464;SDS011;59274;49.874;9.154;2023-06-22T12:20:01;7.83;;;4.00;;
71464;SDS011;59274;49.874;9.154;2023-06-22T12:22:30;6.80;;;3.78;;
71464;SDS011;59274;49.874;9.154;2023-06-22T12:24:56;7.47;;;4.10;;
71464;SDS011;59274;49.874;9.154;2023-06-22T12:27:22;7.23;;;4.17;;
71464;SDS011;59274;49.874;9.154;2023-06-22T12:29:47;8.53;;;4.00;;
71464;SDS011;59274;49.874;9.154;2023-06-22T12:32:13;7.17;;;3.90;;
71464;SDS011;59274;49.874;9.154;2023-06-22T12:34:39;7.67;;;3.33;;
71464;SDS011;59274;49.874;9.154;2023-06-22T12:37:06;8.20;;;3.63;;
71464;SDS011;59274;49.874;9.154;2023-06-22T12:39:32;8.02;;;3.47;;
71464;SDS011;59274;49.874;9.154;2023-06-22T12:41:57;6.77;;;3.37;;
71464;SDS011;59274;49.874;9.154;2023-06-22T12:44:23;7.67;;;3.40;;
71464;SDS011;59274;49.874;9.154;2023-06-22T12:46:48;7.32;;;3.15;;
71464;SDS011;59274;49.874;9.154;2023-06-22T12:49:14;6.77;;;3.57;;
71464;SDS011;59274;49.874;9.154;2023-06-22T12:51:40;7.07;;;3.60;;
71464;SDS011;59274;49.874;9.154;2023-06-22T12:54:07;7.90;;;3.60;;
71464;SDS011;59274;49.874;9.154;2023-06-22T12:56:33;6.50;;;3.13;;
71464;SDS011;59274;49.874;9.154;2023-06-22T12:58:58;6.10;;;2.90;;
71464;SDS011;59274;49.874;9.154;2023-06-22T13:01:27;7.15;;;4.00;;
71464;SDS011;59274;49.874;9.154;2023-06-22T13:03:56;6.38;;;3.28;;
71464;SDS011;59274;49.874;9.154;2023-06-22T13:06:22;8.57;;;3.33;;
71464;SDS011;59274;49.874;9.154;2023-06-22T13:08:48;5.90;;;3.17;;
71464;SDS011;59274;49.874;9.154;2023-06-22T13:11:13;9.83;;;3.40;;
71464;SDS011;59274;49.874;9.154;2023-06-22T13:13:39;7.90;;;3.30;;
71464;SDS011;59274;49.874;9.154;2023-06-22T13:16:05;5.10;;;2.83;;
71464;SDS011;59274;49.874;9.154;2023-06-22T13:18:30;6.55;;;3.05;;
71464;SDS011;59274;49.874;9.154;2023-06-22T13:20:56;6.17;;;3.03;;
71464;SDS011;59274;49.874;9.154;2023-06-22T13:23:23;7.55;;;3.25;;
71464;SDS011;59274;49.874;9.154;2023-06-22T13:25:48;8.80;;;3.87;;
71464;SDS011;59274;49.874;9.154;2023-06-22T13:28:14;8.18;;;3.67;;
71464;SDS011;59274;49.874;9.154;2023-06-22T13:30:41;7.10;;;3.27;;
71464;SDS011;59274;49.874;9.154;2023-06-22T13:33:07;7.78;;;3.13;;
71464;SDS011;59274;49.874;9.154;2023-06-22T13:35:32;7.87;;;3.60;;
71464;SDS011;59274;49.874;9.154;2023-06-22T13:37:58;10.10;;;3.30;;
71464;SDS011;59274;49.874;9.154;2023-06-22T13:40:23;6.83;;;3.50;;
71464;SDS011;59274;49.874;9.154;2023-06-22T13:42:48;6.83;;;3.60;;
71464;SDS011;59274;49.874;9.154;2023-06-22T13:45:14;6.30;;;3.35;;
71464;SDS011;59274;49.874;9.154;2023-06-22T13:47:42;7.00;;;3.47;;
71464;SDS011;59274;49.874;9.154;2023-06-22T13:50:08;6.20;;;3.30;;
71464;SDS011;59274;49.874;9.154;2023-06-22T13:52:34;7.80;;;3.78;;
71464;SDS011;59274;49.874;9.154;2023-06-22T13:54:59;6.07;;;3.57;;
71464;SDS011;59274;49.874;9.154;2023-06-22T13:57:25;6.03;;;3.13;;
71464;SDS011;59274;49.874;9.154;2023-06-22T13:59:50;5.75;;;2.80;;
71464;SDS011;59274;49.874;9.154;2023-06-22T14:02:16;7.97;;;3.60;;
71464;SDS011;59274;49.874;9.154;2023-06-22T14:04:41;8.47;;;3.40;;
71464;SDS011;59274;49.874;9.154;2023-06-22T14:07:07;8.40;;;3.60;;
71464;SDS011;59274;49.874;9.154;2023-06-22T14:09:32;8.17;;;3.57;;
71464;SDS011;59274;49.874;9.154;2023-06-22T14:11:58;6.63;;;3.33;;
71464;SDS011;59274;49.874;9.154;2023-06-22T14:14:28;6.45;;;3.70;;
71464;SDS011;59274;49.874;9.154;2023-06-22T14:16:53;8.37;;;3.80;;
71464;SDS011;59274;49.874;9.154;2023-06-22T14:19:19;6.77;;;3.70;;
71464;SDS011;59274;49.874;9.154;2023-06-22T14:21:44;7.07;;;3.40;;
71464;SDS011;59274;49.874;9.154;2023-06-22T14:24:09;8.70;;;3.83;;
71464;SDS011;59274;49.874;9.154;2023-06-22T14:26:35;6.73;;;3.33;;
71464;SDS011;59274;49.874;9.154;2023-06-22T14:29:00;6.10;;;3.43;;
71464;SDS011;59274;49.874;9.154;2023-06-22T14:31:26;6.00;;;3.67;;
71464;SDS011;59274;49.874;9.154;2023-06-22T14:33:51;7.33;;;3.90;;
71464;SDS011;59274;49.874;9.154;2023-06-22T14:36:16;5.70;;;3.17;;
71464;SDS011;59274;49.874;9.154;2023-06-22T14:38:45;7.18;;;3.25;;
71464;SDS011;59274;49.874;9.154;2023-06-22T14:41:11;6.13;;;3.25;;
71464;SDS011;59274;49.874;9.154;2023-06-22T14:43:36;6.63;;;3.00;;
71464;SDS011;59274;49.874;9.154;2023-06-22T14:46:02;8.40;;;3.20;;
71464;SDS011;59274;49.874;9.154;2023-06-22T14:48:27;6.33;;;3.23;;
71464;SDS011;59274;49.874;9.154;2023-06-22T14:50:53;9.67;;;3.43;;